Time;durP1;ratioP1;P1;durP2;ratioP2;P2;SDS_P1;SDS_P2;PMS_P1;PMS_P2;Temp;Humidity;BMP_temperature;BMP_pressure;BME280_temperature;BME280_humidity;BME280_pressure;Samples;Min_cycle;Max_cycle;Signal;HPM_P1;HPM_P2
2024/04/03 00:02:17;;;;;;;21.75;8.15;;;;;;;7.42;100.00;99819.03;4987411;28;20440;-81
2024/04/03 00:04:45;;;;;;;22.38;7.63;;;;;;;7.43;100.00;99812.50;4985806;28;20427;-81
2024/04/03 00:07:11;;;;;;;18.33;7.38;;;;;;;7.39;100.00;99822.28;4985956;28;20436;-81
2024/04/03 00:09:38;;;;;;;21.27;6.93;;;;;;;7.43;100.00;99824.16;4984078;28;20421;-81
2024/04/03 00:12:06;;;;;;;20.05;7.35;;;;;;;7.37;100.00;99819.06;4986871;28;20427;-81
2024/04/03 00:14:33;;;;;;;22.23;6.93;;;;;;;7.38;100.00;99823.38;5003696;28;20419;-82
2024/04/03 00:17:01;;;;;;;15.77;6.53;;;;;;;7.37;100.00;99827.16;4985098;28;21069;-81
2024/04/03 00:19:28;;;;;;;17.42;6.90;;;;;;;7.36;100.00;99828.25;4985565;28;20424;-81
2024/04/03 00:21:55;;;;;;;18.33;7.10;;;;;;;7.34;100.00;99815.00;4986782;28;20431;-80
2024/04/03 00:24:23;;;;;;;20.38;8.27;;;;;;;7.32;100.00;99815.28;4985818;28;20428;-81
2024/04/03 00:26:49;;;;;;;21.77;7.40;;;;;;;7.29;100.00;99815.84;4985571;28;20451;-81
2024/04/03 00:29:17;;;;;;;17.15;7.93;;;;;;;7.25;100.00;99814.78;4983603;28;20424;-81
2024/04/03 00:31:45;;;;;;;21.77;8.27;;;;;;;7.21;100.00;99813.72;4985300;28;20926;-81
2024/04/03 00:34:14;;;;;;;24.33;8.27;;;;;;;7.25;100.00;99814.78;4991414;28;20805;-81
2024/04/03 00:36:40;;;;;;;21.70;8.45;;;;;;;7.41;100.00;99820.13;4968557;28;20442;-81
2024/04/03 00:39:08;;;;;;;17.50;7.57;;;;;;;7.14;100.00;99821.34;4983672;28;21007;-81
2024/04/03 00:41:34;;;;;;;16.73;7.35;;;;;;;7.07;100.00;99834.34;4985331;28;20427;-81
2024/04/03 00:44:02;;;;;;;17.92;8.15;;;;;;;7.03;100.00;99835.97;4984734;28;20421;-81
2024/04/03 00:46:28;;;;;;;16.90;7.13;;;;;;;7.13;100.00;99831.34;4969415;28;20773;-81
2024/04/03 00:48:56;;;;;;;15.10;7.20;;;;;;;6.90;100.00;99840.91;4986646;28;20432;-81
2024/04/03 00:51:24;;;;;;;17.40;7.25;;;;;;;6.87;100.00;99837.94;4967285;28;20433;-81
2024/04/03 00:53:52;;;;;;;15.18;6.75;;;;;;;6.80;100.00;99833.63;4980453;28;20460;-82
2024/04/03 00:56:19;;;;;;;14.32;6.97;;;;;;;6.77;100.00;99833.38;4984755;28;20436;-81
2024/04/03 00:58:46;;;;;;;14.10;6.53;;;;;;;6.72;100.00;99836.91;4968071;28;21136;-81
2024/04/03 01:01:13;;;;;;;15.90;7.20;;;;;;;6.76;100.00;99829.06;4984635;28;20905;-81
2024/04/03 01:03:41;;;;;;;14.27;6.53;;;;;;;6.72;100.00;99827.97;4986456;28;20437;-82
2024/04/03 01:06:08;;;;;;;16.73;7.13;;;;;;;6.76;100.00;99834.47;4984494;28;20420;-82
2024/04/03 01:08:37;;;;;;;18.98;7.20;;;;;;;6.67;100.00;99846.91;4968249;28;20428;-81
2024/04/03 01:11:04;;;;;;;16.42;6.55;;;;;;;6.63;100.00;99846.69;4984668;28;20464;-81
2024/04/03 01:13:31;;;;;;;14.63;6.55;;;;;;;6.73;100.00;99841.22;4983376;28;20443;-80
2024/04/03 01:16:01;;;;;;;14.93;6.35;;;;;;;6.60;100.00;99841.78;4984831;28;20439;-80
2024/04/03 01:18:28;;;;;;;11.73;5.78;;;;;;;6.53;100.00;99844.81;4987149;28;20441;-81
2024/04/03 01:20:55;;;;;;;12.40;5.13;;;;;;;6.42;100.00;99852.13;4984196;28;20435;-81
2024/04/03 01:23:23;;;;;;;9.10;4.50;;;;;;;6.45;100.00;99840.75;4982146;28;21070;-81
2024/04/03 01:25:51;;;;;;;10.95;4.93;;;;;;;6.33;100.00;99837.53;4973917;28;20438;-81
2024/04/03 01:28:19;;;;;;;10.43;5.30;;;;;;;6.29;100.00;99839.94;4984521;28;20428;-81
2024/04/03 01:30:46;;;;;;;11.18;5.00;;;;;;;6.17;100.00;99841.31;4984136;28;20433;-81
2024/04/03 01:33:13;;;;;;;11.88;5.03;;;;;;;6.11;100.00;99848.63;4966360;28;20935;-81
2024/04/03 01:35:40;;;;;;;11.18;5.07;;;;;;;6.08;100.00;99849.97;4970663;28;20921;-82
2024/04/03 01:38:07;;;;;;;10.35;5.00;;;;;;;5.92;100.00;99842.91;4984999;28;20430;-81
2024/04/03 01:40:34;;;;;;;10.25;4.55;;;;;;;5.84;100.00;99840.75;4983784;28;20721;-81
2024/04/03 01:43:03;;;;;;;11.73;5.10;;;;;;;5.79;100.00;99846.94;4985600;28;20781;-81
2024/04/03 01:45:29;;;;;;;9.70;4.85;;;;;;;5.70;100.00;99837.75;4966521;28;20447;-81
2024/04/03 01:47:57;;;;;;;10.57;5.10;;;;;;;5.75;100.00;99848.56;4983242;28;20416;-81
2024/04/03 01:50:35;;;;;;;10.75;4.70;;;;;;;5.78;100.00;99861.53;4985300;28;20468;-80
2024/04/03 01:53:04;;;;;;;8.10;4.05;;;;;;;5.74;100.00;99858.53;4998804;28;20933;-81
2024/04/03 01:55:30;;;;;;;10.43;4.45;;;;;;;5.61;100.00;99869.88;4983622;28;20836;-81
2024/04/03 01:58:00;;;;;;;8.25;3.97;;;;;;;5.59;100.00;99867.44;4983997;28;20896;-80
2024/04/03 02:00:27;;;;;;;8.88;3.75;;;;;;;5.59;100.00;99862.03;4979705;28;20440;-81
2024/04/03 02:02:55;;;;;;;9.63;3.67;;;;;;;5.58;100.00;99867.72;4966524;28;20901;-80
2024/04/03 02:05:22;;;;;;;8.75;3.90;;;;;;;5.60;100.00;99876.34;4986411;28;21016;-80
2024/04/03 02:07:51;;;;;;;9.40;4.07;;;;;;;5.60;100.00;99884.44;4968509;28;20815;-80
2024/04/03 02:10:17;;;;;;;9.20;3.50;;;;;;;5.52;100.00;99884.94;4985216;28;20432;-81
2024/04/03 02:12:44;;;;;;;7.95;3.78;;;;;;;5.57;100.00;99884.97;4981701;28;20905;-80
2024/04/03 02:15:11;;;;;;;7.75;3.42;;;;;;;5.57;100.00;99890.38;4980036;28;20444;-80
2024/04/03 02:17:40;;;;;;;8.63;4.10;;;;;;;5.48;100.00;99881.16;4987553;28;20441;-81
2024/04/03 02:20:08;;;;;;;7.53;3.45;;;;;;;5.57;100.00;99890.38;5001337;28;20432;-80
2024/04/03 02:22:35;;;;;;;7.03;3.35;;;;;;;5.58;100.00;99900.09;4981437;28;20432;-81
2024/04/03 02:25:03;;;;;;;7.23;3.30;;;;;;;5.54;100.00;99888.22;4983307;28;21155;-81
2024/04/03 02:27:30;;;;;;;6.53;3.20;;;;;;;5.53;100.00;99890.09;4986728;28;20433;-81
2024/04/03 02:29:57;;;;;;;6.55;3.20;;;;;;;5.43;100.00;99895.47;4966278;28;20797;-80
2024/04/03 02:32:24;;;;;;;7.63;3.30;;;;;;;5.54;100.00;99899.00;4990471;28;20431;-80
2024/04/03 02:34:55;;;;;;;7.45;3.30;;;;;;;5.41;100.00;99903.00;4989875;28;20413;-81
2024/04/03 02:37:22;;;;;;;6.50;3.43;;;;;;;5.53;100.00;99906.28;4972925;28;20533;-80
2024/04/03 02:39:49;;;;;;;7.90;3.28;;;;;;;5.49;100.00;99904.38;4981639;28;20436;-80
2024/04/03 02:42:17;;;;;;;6.85;3.53;;;;;;;5.21;100.00;99906.44;4984665;28;20420;-80
2024/04/03 02:44:44;;;;;;;6.63;3.60;;;;;;;5.16;100.00;99903.72;4986395;28;20874;-80
2024/04/03 02:47:11;;;;;;;6.90;3.30;;;;;;;5.23;100.00;99904.28;5003261;28;20421;-80
2024/04/03 02:49:38;;;;;;;7.03;3.55;;;;;;;5.15;100.00;99908.31;4986063;28;20810;-80
2024/04/03 02:52:06;;;;;;;7.47;3.47;;;;;;;5.14;100.00;99913.94;4986413;28;20424;-80
2024/04/03 02:54:33;;;;;;;7.25;3.58;;;;;;;5.04;100.00;99904.75;4981501;28;20424;-80
2024/04/03 02:57:01;;;;;;;9.98;4.20;;;;;;;5.08;100.00;99902.31;4981773;28;20437;-80
2024/04/03 02:59:27;;;;;;;10.47;5.07;;;;;;;4.87;100.00;99904.09;4981515;28;20508;-80
2024/04/03 03:01:55;;;;;;;10.07;4.85;;;;;;;4.83;100.00;99906.50;4984540;28;20428;-79
2024/04/03 03:04:24;;;;;;;9.93;4.90;;;;;;;4.89;100.00;99907.34;4979373;28;20432;-80
2024/04/03 03:06:52;;;;;;;9.67;5.20;;;;;;;4.80;100.00;99912.41;4984518;28;20408;-80
2024/04/03 03:09:21;;;;;;;9.70;5.07;;;;;;;4.88;100.00;99917.31;4980207;28;20416;-81
2024/04/03 03:11:48;;;;;;;9.33;5.00;;;;;;;4.85;100.00;99917.84;4966194;28;20440;-80
2024/04/03 03:14:15;;;;;;;8.97;5.30;;;;;;;4.65;100.00;99923.09;4966496;28;20484;-81
2024/04/03 03:16:42;;;;;;;10.88;5.15;;;;;;;4.60;100.00;99932.78;4961349;28;20463;-80
2024/04/03 03:19:09;;;;;;;9.85;5.10;;;;;;;4.75;100.00;99933.94;4980897;28;22027;-80
2024/04/03 03:21:36;;;;;;;10.33;5.40;;;;;;;4.63;100.00;99928.75;4967264;28;20459;-81
2024/04/03 03:24:03;;;;;;;10.27;5.20;;;;;;;4.59;100.00;99924.94;4984947;28;20448;-81
2024/04/03 03:26:32;;;;;;;9.55;5.57;;;;;;;4.48;100.00;99926.75;4978548;28;20439;-80
2024/04/03 03:28:58;;;;;;;9.60;5.55;;;;;;;4.53;100.00;99918.72;4964512;28;20449;-81
2024/04/03 03:31:28;;;;;;;10.40;5.70;;;;;;;4.49;100.00;99924.84;4962262;28;20440;-81
2024/04/03 03:33:54;;;;;;;8.50;4.70;;;;;;;4.48;100.00;99913.28;4984478;28;20423;-80
2024/04/03 03:36:22;;;;;;;12.03;5.53;;;;;;;4.53;100.00;99907.94;4987423;28;20447;-80
2024/04/03 03:38:49;;;;;;;10.23;4.82;;;;;;;4.54;100.00;99914.94;4984024;28;20452;-80
2024/04/03 03:41:17;;;;;;;9.70;4.90;;;;;;;4.29;100.00;99909.34;4963926;28;20440;-80
2024/04/03 03:43:46;;;;;;;8.07;4.40;;;;;;;4.28;100.00;99919.31;4999216;28;20420;-81
2024/04/03 03:46:12;;;;;;;7.30;3.97;;;;;;;4.30;100.00;99922.56;4982196;28;20444;-80
2024/04/03 03:54:10;;;;;;;6.45;3.30;;;;;;;3.95;100.00;99898.81;4980506;28;20443;-80
2024/04/03 03:56:37;;;;;;;6.93;3.83;;;;;;;3.94;100.00;99906.09;4982376;28;20432;-80
2024/04/03 03:59:06;;;;;;;7.37;3.80;;;;;;;3.82;100.00;99917.00;4978722;28;20469;-80
2024/04/03 04:01:33;;;;;;;7.55;3.80;;;;;;;3.89;100.00;99922.19;4963546;28;20438;-80
2024/04/03 04:04:01;;;;;;;7.68;4.03;;;;;;;3.83;100.00;99924.00;4981835;28;21251;-80
2024/04/03 04:06:29;;;;;;;7.87;4.00;;;;;;;3.79;100.00;99941.72;4981352;28;20420;-80
2024/04/03 04:08:55;;;;;;;7.78;4.10;;;;;;;3.89;100.00;99947.25;4981972;28;20445;-80
2024/04/03 04:11:23;;;;;;;8.02;4.10;;;;;;;3.81;100.00;99947.69;4965796;28;20743;-80
2024/04/03 04:13:49;;;;;;;8.90;4.10;;;;;;;3.75;100.00;99946.78;4980087;28;20469;-80
2024/04/03 04:16:18;;;;;;;7.70;3.90;;;;;;;3.68;100.00;99940.81;4967073;28;20463;-80
2024/04/03 04:18:45;;;;;;;8.02;4.15;;;;;;;3.63;100.00;99931.88;4981819;28;20443;-81
2024/04/03 04:21:12;;;;;;;7.20;3.72;;;;;;;3.56;100.00;99945.50;4966148;28;20439;-80
2024/04/03 04:23:39;;;;;;;8.13;4.10;;;;;;;3.56;100.00;99949.03;4987779;28;20581;-81
2024/04/03 04:26:06;;;;;;;8.18;4.10;;;;;;;3.80;100.00;99956.81;4969942;28;20435;-80
2024/04/03 04:28:34;;;;;;;7.57;3.97;;;;;;;3.63;100.00;99950.69;4980435;28;20432;-80
2024/04/03 04:31:02;;;;;;;7.68;3.92;;;;;;;3.62;100.00;99955.28;4985967;28;21229;-79
2024/04/03 04:33:31;;;;;;;8.77;3.80;;;;;;;3.63;100.00;99958.78;4983145;28;20521;-80
2024/04/03 04:36:00;;;;;;;7.05;3.75;;;;;;;3.54;100.00;99948.44;4987396;28;20420;-80
2024/04/03 04:38:27;;;;;;;7.28;3.75;;;;;;;3.58;100.00;99949.56;4984894;28;20432;-80
2024/04/03 04:40:56;;;;;;;6.75;3.70;;;;;;;3.54;100.00;99951.13;4985311;28;20436;-80
2024/04/03 04:43:23;;;;;;;7.38;4.00;;;;;;;3.44;100.00;99959.09;4986026;28;21104;-80
2024/04/03 04:45:58;;;;;;;7.97;3.88;;;;;;;3.54;100.00;99963.78;4984169;28;20431;-80
2024/04/03 04:48:25;;;;;;;8.00;4.13;;;;;;;3.50;100.00;99968.03;4985240;28;20436;-80
2024/04/03 04:50:56;;;;;;;7.72;4.05;;;;;;;3.45;100.00;99970.66;4986612;28;20428;-80
2024/04/03 04:53:23;;;;;;;8.15;4.00;;;;;;;3.30;100.00;99974.78;4968584;28;20440;-80
2024/04/03 04:55:55;;;;;;;8.07;4.47;;;;;;;3.36;100.00;99973.78;4987615;28;21000;-80
2024/04/03 04:58:22;;;;;;;8.70;4.22;;;;;;;3.23;100.00;99976.84;4983442;28;20425;-80
2024/04/03 05:00:50;;;;;;;7.15;3.75;;;;;;;3.18;100.00;99988.34;4984332;28;20428;-80
2024/04/03 05:03:17;;;;;;;6.38;3.25;;;;;;;3.12;100.00;99992.03;4979833;28;21067;-80
2024/04/03 05:05:44;;;;;;;5.53;2.70;;;;;;;2.95;100.00;99996.59;4966074;28;20447;-81
2024/04/03 05:08:12;;;;;;;5.22;2.83;;;;;;;3.02;100.00;99986.50;4983967;28;20455;-81
2024/04/03 05:10:39;;;;;;;6.00;2.70;;;;;;;3.13;100.00;99992.84;4985006;28;20413;-80
2024/04/03 05:13:06;;;;;;;5.80;2.85;;;;;;;3.07;100.00;100000.00;4985575;28;20433;-80
2024/04/03 05:15:34;;;;;;;5.33;2.80;;;;;;;3.03;100.00;100006.94;4967557;28;20524;-81
2024/04/03 05:18:00;;;;;;;6.07;2.75;;;;;;;3.00;100.00;100008.25;4966706;28;20441;-81
2024/04/03 05:20:28;;;;;;;5.28;2.65;;;;;;;3.04;100.00;100009.38;4984045;28;20432;-80
2024/04/03 05:22:56;;;;;;;5.40;2.67;;;;;;;3.00;100.00;100002.88;4981678;28;20884;-80
2024/04/03 05:25:25;;;;;;;5.43;2.72;;;;;;;3.05;100.00;100010.19;4965234;28;20444;-80
2024/04/03 05:27:51;;;;;;;6.23;3.10;;;;;;;3.07;100.00;100013.47;4982802;28;20444;-81
2024/04/03 05:30:20;;;;;;;5.30;2.70;;;;;;;3.00;100.00;100015.50;4999187;28;20436;-80
2024/04/03 05:32:46;;;;;;;5.35;2.80;;;;;;;3.05;100.00;100020.94;4984060;28;20428;-81
2024/04/03 05:35:16;;;;;;;4.90;2.70;;;;;;;3.06;100.00;100020.69;4981978;28;20436;-80
2024/04/03 05:37:43;;;;;;;5.60;2.80;;;;;;;3.06;100.00;100020.69;4983114;28;20792;-80
2024/04/03 05:40:11;;;;;;;5.03;2.60;;;;;;;3.12;100.00;100010.84;4984295;28;20428;-80
2024/04/03 05:42:39;;;;;;;4.90;2.70;;;;;;;3.29;100.00;100013.50;4981643;28;20426;-80
2024/04/03 05:45:07;;;;;;;5.68;2.90;;;;;;;3.27;100.00;100018.28;4981623;28;20508;-80
2024/04/03 05:47:35;;;;;;;6.53;3.00;;;;;;;3.23;100.00;100022.53;4980797;28;20440;-80
2024/04/03 05:50:05;;;;;;;5.90;2.90;;;;;;;3.19;100.00;100026.78;4984325;28;20437;-80
2024/04/03 05:52:33;;;;;;;6.85;2.90;;;;;;;3.15;100.00;100021.09;4983745;28;20436;-79
2024/04/03 05:55:00;;;;;;;6.15;3.10;;;;;;;3.18;100.00;100014.44;4981910;28;20813;-81
2024/04/03 05:57:27;;;;;;;6.60;3.28;;;;;;;3.31;100.00;100008.69;4980676;28;20441;-80
2024/04/03 05:59:56;;;;;;;6.20;3.10;;;;;;;3.19;100.00;100011.47;4984586;28;20432;-80
2024/04/03 06:02:22;;;;;;;5.82;3.05;;;;;;;3.20;100.00;99999.69;4983634;28;20445;-80
2024/04/03 06:04:50;;;;;;;5.50;2.92;;;;;;;3.16;100.00;100011.97;4982996;28;20428;-80
2024/04/03 06:07:17;;;;;;;5.78;2.92;;;;;;;3.17;100.00;100007.41;4988729;28;20761;-80
2024/04/03 06:09:44;;;;;;;6.00;2.97;;;;;;;3.20;100.00;100009.59;4986641;28;20455;-80
2024/04/03 06:12:10;;;;;;;6.30;3.33;;;;;;;3.21;100.00;100014.72;4987247;28;20414;-81
2024/04/03 06:14:38;;;;;;;7.25;3.35;;;;;;;3.34;100.00;100010.88;4972493;28;20433;-81
2024/04/03 06:17:06;;;;;;;6.88;3.25;;;;;;;3.44;100.00;100001.31;4991375;28;20424;-81
2024/04/03 06:19:33;;;;;;;5.32;2.90;;;;;;;3.33;100.00;100005.72;4989875;28;20420;-81
2024/04/03 06:22:00;;;;;;;5.87;2.90;;;;;;;3.35;100.00;100009.81;4977032;28;20444;-81
2024/04/03 06:24:27;;;;;;;5.85;2.83;;;;;;;3.43;100.00;100007.78;4971944;28;20793;-80
2024/04/03 06:26:54;;;;;;;5.95;2.83;;;;;;;3.43;100.00;100002.41;4986724;28;20436;-80
2024/04/03 06:29:21;;;;;;;5.05;2.78;;;;;;;3.34;100.00;100007.38;4990381;28;20443;-80
2024/04/03 06:31:49;;;;;;;5.03;2.65;;;;;;;3.31;100.00;99994.44;4990155;28;20420;-80
2024/04/03 06:34:18;;;;;;;4.35;2.45;;;;;;;3.32;100.00;100001.44;4968909;28;20427;-80
2024/04/03 06:36:45;;;;;;;5.45;2.75;;;;;;;3.38;100.00;99995.06;4976900;28;20417;-80
2024/04/03 06:39:12;;;;;;;5.55;2.92;;;;;;;3.42;100.00;99990.00;4981301;28;20420;-81
2024/04/03 06:41:39;;;;;;;5.57;2.65;;;;;;;3.44;100.00;99987.84;4975243;28;20440;-81
2024/04/03 06:44:06;;;;;;;4.75;2.28;;;;;;;3.54;100.00;99999.56;4986901;28;20443;-80
2024/04/03 06:46:33;;;;;;;4.78;2.55;;;;;;;3.69;100.00;100007.03;4971677;28;20440;-80
2024/04/03 06:49:01;;;;;;;6.28;2.50;;;;;;;3.67;100.00;100011.03;4990079;28;20427;-81
2024/04/03 06:51:29;;;;;;;4.88;2.50;;;;;;;3.63;100.00;100010.69;4989950;28;20428;-80
2024/04/03 06:53:56;;;;;;;4.82;2.50;;;;;;;3.77;100.00;100007.63;4980153;28;20436;-81
2024/04/03 06:56:23;;;;;;;7.27;2.60;;;;;;;3.83;100.00;100004.75;4967342;28;20436;-80
2024/04/03 06:58:51;;;;;;;4.57;2.50;;;;;;;3.96;100.00;100008.94;4986052;28;20448;-80
2024/04/03 07:01:17;;;;;;;5.40;2.60;;;;;;;4.03;100.00;100008.75;4973622;28;20440;-80
2024/04/03 07:03:45;;;;;;;5.40;2.53;;;;;;;3.91;100.00;100019.66;4987064;28;20432;-82
2024/04/03 07:06:12;;;;;;;5.45;2.55;;;;;;;3.84;100.00;100019.03;4982374;28;20436;-81
2024/04/03 07:08:41;;;;;;;4.97;2.80;;;;;;;3.85;100.00;100024.19;4981651;28;20436;-81
2024/04/03 07:11:08;;;;;;;5.40;2.85;;;;;;;3.98;100.00;100022.13;4986899;28;20433;-81
2024/04/03 07:13:35;;;;;;;4.95;2.70;;;;;;;4.07;100.00;100017.94;4987621;28;20429;-81
2024/04/03 07:16:02;;;;;;;5.93;3.00;;;;;;;4.10;100.00;100025.50;4988684;28;20428;-82
2024/04/03 07:18:29;;;;;;;5.63;2.28;;;;;;;4.06;100.00;100019.00;4986472;28;20435;-82
2024/04/03 07:20:58;;;;;;;4.93;2.65;;;;;;;3.98;100.00;100020.28;4985621;28;20436;-80
2024/04/03 07:23:27;;;;;;;5.45;2.63;;;;;;;3.85;100.00;100024.19;4968948;28;20440;-81
2024/04/03 07:25:56;;;;;;;4.25;2.50;;;;;;;3.98;100.00;100033.75;4969474;28;20762;-82
2024/04/03 07:28:24;;;;;;;3.75;2.05;;;;;;;4.06;100.00;100029.78;5005086;28;20421;-80
2024/04/03 07:30:51;;;;;;;5.35;2.75;;;;;;;4.20;100.00;100031.03;4983617;28;20432;-82
2024/04/03 07:33:18;;;;;;;5.38;2.60;;;;;;;4.43;100.00;100026.38;4981006;28;20440;-81
2024/04/03 07:35:45;;;;;;;5.35;2.80;;;;;;;4.46;100.00;100025.91;4969106;28;20436;-81
2024/04/03 07:38:12;;;;;;;5.50;2.90;;;;;;;4.53;100.00;100017.59;4985920;28;20420;-80
2024/04/03 07:40:43;;;;;;;5.10;2.83;;;;;;;4.65;100.00;100022.81;4972027;28;20435;-82
2024/04/03 07:43:12;;;;;;;5.15;2.72;;;;;;;4.74;100.00;100021.28;4980339;28;20950;-82
2024/04/03 07:45:39;;;;;;;4.75;2.60;;;;;;;4.96;100.00;100028.44;4981458;28;20440;-82
2024/04/03 07:48:07;;;;;;;4.72;2.50;;;;;;;5.15;100.00;100023.47;4983808;28;20444;-81
2024/04/03 07:50:34;;;;;;;4.85;2.70;;;;;;;5.19;100.00;100021.88;4927791;28;20456;-82
2024/04/03 07:53:01;;;;;;;5.38;2.78;;;;;;;5.37;100.00;100036.81;4978782;28;20429;-81
2024/04/03 07:55:29;;;;;;;4.32;2.45;;;;;;;5.39;100.00;100023.88;4957614;28;20424;-81
2024/04/03 07:57:56;;;;;;;5.25;2.70;;;;;;;5.45;100.00;100031.75;4965444;28;21342;-82
2024/04/03 08:00:24;;;;;;;6.30;2.80;;;;;;;5.59;100.00;100025.88;4963049;28;20629;-81
2024/04/03 08:02:52;;;;;;;5.22;2.40;;;;;;;5.77;100.00;100030.00;4958168;28;20427;-80
2024/04/03 08:05:18;;;;;;;4.82;2.30;;;;;;;5.76;100.00;100034.59;4940807;28;21565;-80
2024/04/03 08:07:46;;;;;;;4.45;2.45;;;;;;;5.93;100.00;100031.69;4939066;28;20705;-78
2024/04/03 08:10:13;;;;;;;4.25;2.40;;;;;;;5.90;100.00;100032.22;4935076;28;21035;-80
2024/04/03 08:12:42;;;;;;;4.28;2.35;;;;;;;6.29;100.00;100022.91;4960106;28;20440;-81
2024/04/03 08:15:11;;;;;;;5.13;2.80;;;;;;;6.39;100.00;100022.91;4958779;28;20443;-81
2024/04/03 08:17:40;;;;;;;4.50;2.50;;;;;;;6.07;100.00;100032.03;4961991;28;20525;-81
2024/04/03 08:20:07;;;;;;;4.77;2.30;;;;;;;6.02;100.00;100026.63;4948109;28;21063;-79
2024/04/03 08:22:34;;;;;;;3.90;2.38;;;;;;;5.90;100.00;100028.72;4958274;28;20435;-81
2024/04/03 08:25:02;;;;;;;4.40;2.30;;;;;;;5.73;100.00;100029.72;4947189;28;20444;-81
2024/04/03 08:27:32;;;;;;;3.67;2.20;;;;;;;5.75;100.00;100030.25;4962628;28;20420;-79
2024/04/03 08:30:00;;;;;;;4.35;2.33;;;;;;;5.88;100.00;100030.84;4963847;28;20433;-79
2024/04/03 08:32:27;;;;;;;3.80;2.10;;;;;;;5.88;100.00;100041.66;4985507;28;20901;-80
2024/04/03 08:34:55;;;;;;;4.07;2.28;;;;;;;6.08;100.00;100040.97;4944544;28;20433;-81
2024/04/03 08:37:23;;;;;;;3.87;2.13;;;;;;;6.17;100.00;100035.84;4967196;28;20441;-81
2024/04/03 08:39:50;;;;;;;3.83;2.17;;;;;;;6.34;100.00;100027.50;4955091;28;20447;-80
2024/04/03 08:42:18;;;;;;;4.07;2.22;;;;;;;6.10;100.00;100045.03;4953401;28;20425;-81
2024/04/03 08:44:45;;;;;;;4.18;2.50;;;;;;;6.31;100.00;100036.94;4943451;28;21250;-79
2024/04/03 08:47:14;;;;;;;4.20;2.45;;;;;;;6.50;100.00;100033.75;4950342;28;20441;-81
2024/04/03 08:49:40;;;;;;;4.80;2.50;;;;;;;6.55;100.00;100028.34;4949431;28;20420;-79
2024/04/03 08:52:10;;;;;;;3.65;2.15;;;;;;;6.57;100.00;100029.72;4962670;28;21176;-80
2024/04/03 08:54:40;;;;;;;3.72;2.17;;;;;;;6.61;100.00;100028.06;4951228;28;20468;-80
2024/04/03 08:57:08;;;;;;;3.95;2.25;;;;;;;6.48;100.00;100023.22;4957181;28;20437;-81
2024/04/03 08:59:37;;;;;;;3.85;2.20;;;;;;;6.71;100.00;100032.69;4967253;28;20420;-81
2024/04/03 09:02:05;;;;;;;6.03;2.55;;;;;;;6.72;100.00;100036.19;4960359;28;20424;-83
2024/04/03 09:04:33;;;;;;;4.50;2.63;;;;;;;6.81;100.00;100038.09;4959679;28;20822;-81
2024/04/03 09:07:01;;;;;;;4.70;2.47;;;;;;;7.02;100.00;100034.59;4961990;28;20432;-80
2024/04/03 09:09:31;;;;;;;4.47;2.55;;;;;;;7.08;100.00;100028.88;4965915;28;20432;-80
2024/04/03 09:12:03;;;;;;;5.87;2.97;;;;;;;7.33;100.00;100027.19;4964247;28;20428;-81
2024/04/03 09:14:30;;;;;;;4.43;2.58;;;;;;;7.18;100.00;100025.38;4969899;28;20424;-81
2024/04/03 09:16:59;;;;;;;5.32;3.00;;;;;;;7.24;100.00;100032.38;4960922;28;20444;-81
2024/04/03 09:19:26;;;;;;;6.05;2.80;;;;;;;7.42;100.00;100022.88;4967686;28;20432;-80
2024/04/03 09:21:53;;;;;;;5.97;3.05;;;;;;;7.43;100.00;100027.19;4968254;28;20432;-79
2024/04/03 09:24:20;;;;;;;4.82;2.80;;;;;;;7.57;100.00;100030.13;4965759;28;20427;-82
2024/04/03 09:26:51;;;;;;;5.78;3.00;;;;;;;7.63;100.00;100034.44;4952394;28;20440;-81
2024/04/03 09:29:18;;;;;;;5.25;2.88;;;;;;;7.76;100.00;100032.22;4961741;28;20974;-81
2024/04/03 09:31:46;;;;;;;5.70;2.75;;;;;;;7.80;100.00;100036.00;4954416;28;20962;-80
2024/04/03 09:34:14;;;;;;;7.05;3.30;;;;;;;7.82;100.00;100031.13;4947044;28;20436;-80
2024/04/03 09:36:42;;;;;;;5.25;2.85;;;;;;;7.80;100.00;100034.13;4965888;28;20424;-80
2024/04/03 09:39:09;;;;;;;5.38;2.85;;;;;;;7.74;100.00;100035.22;4961133;28;20455;-80
2024/04/03 09:41:40;;;;;;;6.00;2.97;;;;;;;7.41;100.00;100034.78;4946837;28;20428;-80
2024/04/03 09:44:12;;;;;;;6.22;3.50;;;;;;;7.67;100.00;100032.00;4956564;28;20439;-82
2024/04/03 09:46:43;;;;;;;6.40;3.30;;;;;;;7.41;100.00;100034.78;4942344;28;20444;-80
2024/04/03 09:49:13;;;;;;;6.13;2.97;;;;;;;7.64;100.00;100030.66;4931581;28;20442;-80
2024/04/03 09:51:40;;;;;;;6.53;3.00;;;;;;;8.14;100.00;100033.41;4943317;28;20448;-79
2024/04/03 09:54:10;;;;;;;6.22;2.97;;;;;;;7.97;100.00;100031.06;4942730;28;20433;-80
2024/04/03 09:56:38;;;;;;;6.03;3.00;;;;;;;8.20;100.00;100025.25;4958653;28;20424;-80
2024/04/03 09:59:08;;;;;;;6.75;3.30;;;;;;;8.31;100.00;100027.63;4943622;28;20451;-81
2024/04/03 10:01:36;;;;;;;8.13;3.88;;;;;;;8.39;100.00;100018.06;4945949;28;20455;-80
2024/04/03 10:04:04;;;;;;;7.72;3.75;;;;;;;8.40;100.00;100013.47;4962828;28;20444;-80
2024/04/03 10:06:36;;;;;;;6.82;3.50;;;;;;;8.59;100.00;100021.75;4946819;28;21978;-80
2024/04/03 10:09:15;;;;;;;7.93;3.58;;;;;;;8.53;100.00;100015.56;4944264;28;20889;-80
2024/04/03 10:11:48;;;;;;;6.97;3.70;;;;;;;8.42;100.00;100022.94;4960090;28;20477;-80
2024/04/03 10:14:19;;;;;;;6.10;3.40;;;;;;;8.45;100.00;100011.56;4967510;28;20530;-81
2024/04/03 10:16:47;;;;;;;7.65;3.83;;;;;;;8.70;100.00;100019.78;4961565;28;20420;-81
2024/04/03 10:19:20;;;;;;;6.88;3.58;;;;;;;8.65;100.00;100017.94;4940696;28;20467;-82
2024/04/03 10:21:47;;;;;;;8.55;4.40;;;;;;;8.70;100.00;100017.06;4958532;28;20428;-81
2024/04/03 10:24:14;;;;;;;8.57;4.83;;;;;;;8.68;100.00;100017.38;4960354;28;20497;-80
2024/04/03 10:26:42;;;;;;;8.83;4.67;;;;;;;8.88;100.00;100021.00;4949510;28;20481;-80
2024/04/03 10:29:08;;;;;;;8.80;4.78;;;;;;;8.84;100.00;100020.78;4939425;28;20444;-80
2024/04/03 10:31:37;;;;;;;8.48;4.38;;;;;;;8.71;100.00;100018.72;4968656;28;20425;-81
2024/04/03 10:34:03;;;;;;;10.52;5.30;;;;;;;8.64;100.00;100025.25;4943481;28;20440;-81
2024/04/03 10:36:32;;;;;;;11.52;4.68;;;;;;;8.87;100.00;100022.91;4936594;28;20431;-81
2024/04/03 10:38:58;;;;;;;9.60;4.60;;;;;;;8.86;100.00;100018.56;4935235;28;20443;-81
2024/04/03 10:41:26;;;;;;;9.45;4.70;;;;;;;8.71;100.00;100024.13;4955459;28;20436;-81
2024/04/03 10:43:52;;;;;;;8.60;4.70;;;;;;;8.51;100.00;100026.69;4942680;28;20433;-81
2024/04/03 10:46:24;;;;;;;9.03;4.33;;;;;;;8.47;100.00;100017.50;4956355;28;20424;-82
2024/04/03 10:48:55;;;;;;;8.40;4.57;;;;;;;8.56;100.00;100028.59;4942529;28;20436;-80
2024/04/03 10:51:23;;;;;;;8.90;4.50;;;;;;;8.65;100.00;100012.50;4927755;28;20536;-81
2024/04/03 10:53:49;;;;;;;8.90;4.68;;;;;;;8.58;100.00;100023.69;4952839;28;20422;-81
2024/04/03 10:56:18;;;;;;;9.73;4.40;;;;;;;8.57;100.00;100022.06;4949038;28;20425;-80
2024/04/03 10:58:44;;;;;;;9.48;4.70;;;;;;;8.36;100.00;100024.06;4960217;28;20426;-82
2024/04/03 11:01:13;;;;;;;8.40;4.20;;;;;;;8.48;100.00;100023.75;4954264;28;20431;-80
2024/04/03 11:03:41;;;;;;;8.75;4.55;;;;;;;8.59;100.00;100016.34;4932476;28;20437;-80
2024/04/03 11:06:11;;;;;;;8.68;4.32;;;;;;;8.58;100.00;100012.03;4945943;28;20433;-81
2024/04/03 11:08:37;;;;;;;8.90;4.30;;;;;;;8.70;100.00;100017.06;4951940;28;20433;-82
2024/04/03 11:11:06;;;;;;;8.63;4.18;;;;;;;8.81;100.00;100021.31;4947313;28;20424;-80
2024/04/03 11:13:32;;;;;;;9.00;4.32;;;;;;;8.78;100.00;100009.16;4959354;28;20422;-80
2024/04/03 11:16:00;;;;;;;8.30;4.03;;;;;;;8.73;100.00;100020.03;4939073;28;20441;-80
2024/04/03 11:18:26;;;;;;;9.57;4.10;;;;;;;8.75;100.00;100017.03;4942180;28;20457;-81
2024/04/03 11:20:54;;;;;;;7.30;3.73;;;;;;;8.90;100.00;100021.53;4959292;28;20425;-81
2024/04/03 11:23:22;;;;;;;8.35;4.00;;;;;;;8.84;100.00;100018.06;4956362;28;20446;-81
2024/04/03 11:25:50;;;;;;;7.75;3.90;;;;;;;8.77;100.00;100014.84;4953977;28;20422;-81
2024/04/03 11:28:17;;;;;;;9.02;4.53;;;;;;;8.71;100.00;100016.78;4939939;28;20993;-81
2024/04/03 11:30:46;;;;;;;8.25;4.00;;;;;;;8.95;100.00;100018.75;4948390;28;21033;-80
2024/04/03 11:33:14;;;;;;;8.80;4.55;;;;;;;8.91;100.00;100018.53;4973201;28;20441;-82
2024/04/03 11:35:41;;;;;;;8.77;4.47;;;;;;;8.90;100.00;100021.53;4958837;28;20431;-80